createdAt,value
2023-04-21T00:00:40.648Z,98214.22
2023-04-21T00:03:44.256Z,98223.13
2023-04-21T00:06:46.898Z,98216.03
2023-04-21T00:09:51.148Z,98216.53
2023-04-21T00:12:53.828Z,98221.94
2023-04-21T00:15:56.468Z,98214.13
2023-04-21T00:18:59.278Z,98221.84
2023-04-21T00:22:01.772Z,98218.13
2023-04-21T00:25:06.879Z,98220.16
2023-04-21T00:28:09.458Z,98212.34
2023-04-21T00:31:12.053Z,98205.81
2023-04-21T00:34:14.670Z,98209.81
2023-04-21T00:37:17.269Z,98199.00
2023-04-21T00:40:21.476Z,98209.94
2023-04-21T00:43:25.735Z,98203.13
2023-04-21T00:46:28.380Z,98197.47
2023-04-21T00:49:30.985Z,98193.97
2023-04-21T00:52:34.540Z,98190.66
2023-04-21T00:55:38.392Z,98183.13
2023-04-21T00:58:41.131Z,98180.19
2023-04-21T01:01:44.430Z,98193.88
2023-04-21T01:04:47.067Z,98190.06
2023-04-21T01:07:50.342Z,98190.44
2023-04-21T01:10:54.252Z,98191.16
2023-04-21T01:13:56.652Z,98184.16
2023-04-21T01:16:59.473Z,98178.53
2023-04-21T01:20:03.266Z,98172.91
2023-04-21T01:23:07.175Z,98178.94
2023-04-21T01:26:09.832Z,98170.88
2023-04-21T01:29:12.347Z,98176.63
2023-04-21T01:32:16.970Z,98173.59
2023-04-21T01:35:19.674Z,98164.53
2023-04-21T01:38:23.824Z,98178.16
2023-04-21T01:41:26.457Z,98184.59
2023-04-21T01:44:28.985Z,98171.66
2023-04-21T01:47:31.623Z,98169.03
2023-04-21T01:50:34.193Z,98175.28
2023-04-21T01:53:38.059Z,98177.59
2023-04-21T01:56:40.558Z,98184.66
2023-04-21T01:59:43.175Z,98196.41
2023-04-21T02:02:45.767Z,98179.31
2023-04-21T02:05:48.385Z,98187.13
2023-04-21T02:08:52.341Z,98184.88
2023-04-21T02:11:57.072Z,98179.75
2023-04-21T02:14:59.848Z,98180.78
2023-04-21T02:18:02.481Z,98183.56
2023-04-21T02:21:05.516Z,98181.72
2023-04-21T02:24:09.521Z,98182.53
2023-04-21T02:27:12.030Z,98179.31
2023-04-21T02:30:14.787Z,98178.38
2023-04-21T02:33:17.392Z,98173.53
2023-04-21T02:36:19.931Z,98178.66
2023-04-21T02:39:23.784Z,98172.00
2023-04-21T02:42:26.294Z,98192.78
2023-04-21T02:45:28.703Z,98190.63
2023-04-21T02:48:31.363Z,98197.13
2023-04-21T02:51:33.826Z,98198.00
2023-04-21T02:54:37.718Z,98200.88
2023-04-21T02:57:40.091Z,98193.34
2023-04-21T03:00:42.646Z,98189.69
2023-04-21T03:03:45.354Z,98189.84
2023-04-21T03:06:48.024Z,98183.31
2023-04-21T03:09:51.887Z,98185.81
2023-04-21T03:12:55.980Z,98175.81
2023-04-21T03:15:58.526Z,98174.28
2023-04-21T03:19:01.167Z,98170.16
2023-04-21T03:22:04.097Z,98168.63
2023-04-21T03:25:08.617Z,98160.81
2023-04-21T03:28:11.283Z,98158.84
2023-04-21T03:31:13.773Z,98161.31
2023-04-21T03:34:16.445Z,98164.75
2023-04-21T03:37:18.978Z,98165.81
2023-04-21T03:40:23.195Z,98171.72
2023-04-21T03:43:25.683Z,98161.44
2023-04-21T03:46:28.414Z,98153.44
2023-04-21T03:49:31.676Z,98162.84
2023-04-21T03:52:34.364Z,98161.47
2023-04-21T03:55:38.424Z,98168.78
2023-04-21T03:58:41.030Z,98178.28
2023-04-21T04:01:43.739Z,98179.97
2023-04-21T04:04:46.267Z,98177.56
2023-04-21T04:07:48.807Z,98176.22
2023-04-21T04:10:52.632Z,98174.56
2023-04-21T04:13:54.969Z,98185.00
2023-04-21T04:16:57.517Z,98174.59
2023-04-21T04:20:00.151Z,98179.13
2023-04-21T04:23:02.636Z,98178.34
2023-04-21T04:26:06.640Z,98172.03
2023-04-21T04:29:10.598Z,98182.88
2023-04-21T04:32:13.568Z,98189.47
2023-04-21T04:35:16.386Z,98177.66
2023-04-21T04:38:19.308Z,98175.38
2023-04-21T04:41:24.149Z,98173.38
2023-04-21T04:44:26.805Z,98187.13
2023-04-21T04:47:29.664Z,98185.34
2023-04-21T04:50:32.437Z,98179.53
2023-04-21T04:53:34.933Z,98186.19
2023-04-21T04:56:39.341Z,98182.22
2023-04-21T04:59:41.841Z,98188.06
2023-04-21T05:02:44.734Z,98194.69
2023-04-21T05:05:47.513Z,98196.09
2023-04-21T05:08:49.995Z,98201.50
2023-04-21T05:11:53.862Z,98202.13
2023-04-21T05:14:56.478Z,98222.19
2023-04-21T05:17:59.024Z,98215.78
2023-04-21T05:21:01.600Z,98212.50
2023-04-21T05:24:04.218Z,98215.59
2023-04-21T05:27:08.076Z,98211.34
2023-04-21T05:30:11.613Z,98223.31
2023-04-21T05:33:14.339Z,98215.78
2023-04-21T05:36:17.077Z,98211.81
2023-04-21T05:39:19.791Z,98233.22
2023-04-21T05:42:23.720Z,98234.31
2023-04-21T05:45:26.366Z,98225.44
2023-04-21T05:48:29.660Z,98225.03
2023-04-21T05:51:32.625Z,98222.53
2023-04-21T05:54:35.189Z,98214.84
2023-04-21T05:57:39.107Z,98221.25
2023-04-21T06:00:41.602Z,98215.03
2023-04-21T06:03:44.405Z,98202.03
2023-04-21T06:06:46.949Z,98206.81
2023-04-21T06:09:51.855Z,98211.03
2023-04-21T06:12:55.755Z,98200.97
2023-04-21T06:15:58.537Z,98198.72
2023-04-21T06:19:01.369Z,98200.19
2023-04-21T06:22:04.110Z,98191.09
2023-04-21T06:25:07.414Z,98208.38
2023-04-21T06:28:11.232Z,98219.78
2023-04-21T06:31:15.573Z,98202.63
2023-04-21T06:34:20.194Z,98201.25
2023-04-21T06:37:22.934Z,98196.16
2023-04-21T06:40:25.526Z,98196.56
2023-04-21T06:43:29.537Z,98218.66
2023-04-21T06:46:32.145Z,98211.75
2023-04-21T06:49:35.045Z,98205.78
2023-04-21T06:52:37.565Z,98207.41
2023-04-21T06:55:40.155Z,98209.84
2023-04-21T06:58:44.012Z,98204.38
2023-04-21T07:01:48.947Z,98190.44
2023-04-21T07:04:51.602Z,98204.38
2023-04-21T07:07:56.848Z,98209.69
2023-04-21T07:10:59.429Z,98204.19
2023-04-21T07:14:03.306Z,98196.63
2023-04-21T07:17:06.236Z,98202.56
2023-04-21T07:20:10.072Z,98199.38
2023-04-21T07:23:12.509Z,98193.06
2023-04-21T07:26:15.092Z,98188.22
2023-04-21T07:29:19.369Z,98186.31
2023-04-21T07:32:22.378Z,98189.94
2023-04-21T07:35:25.123Z,98179.81
2023-04-21T07:38:27.640Z,98179.22
2023-04-21T07:41:30.232Z,98183.19
2023-04-21T07:44:34.136Z,98182.06
2023-04-21T07:47:36.855Z,98179.72
2023-04-21T07:50:39.582Z,98181.28
2023-04-21T07:53:42.186Z,98180.41
2023-04-21T07:56:44.718Z,98176.88
2023-04-21T07:59:48.677Z,98174.44
2023-04-21T08:02:51.319Z,98172.56
2023-04-21T08:05:54.251Z,98167.06
2023-04-21T08:08:56.953Z,98165.69
2023-04-21T08:11:59.547Z,98173.25
2023-04-21T08:15:05.863Z,98176.00
2023-04-21T08:18:09.655Z,98173.38
2023-04-21T08:21:12.634Z,98167.09
2023-04-21T08:24:15.184Z,98166.16
2023-04-21T08:27:17.764Z,98162.63
2023-04-21T08:30:21.699Z,98171.47
2023-04-21T08:33:24.302Z,98168.22
2023-04-21T08:36:29.739Z,98156.16
2023-04-21T08:39:32.925Z,98157.88
2023-04-21T08:42:36.848Z,98163.06
2023-04-21T08:45:41.216Z,98160.78
2023-04-21T08:48:43.845Z,98159.88
2023-04-21T08:51:47.164Z,98155.50
2023-04-21T08:54:52.867Z,98157.09
2023-04-21T08:57:55.395Z,98146.91
2023-04-21T09:00:59.386Z,98151.47
2023-04-21T09:04:17.542Z,98148.06
2023-04-21T09:07:32.477Z,98150.63
2023-04-21T09:10:35.325Z,98152.44
2023-04-21T09:13:38.187Z,98150.69
2023-04-21T09:16:44.540Z,98144.63
2023-04-21T09:19:47.125Z,98145.34
2023-04-21T09:22:51.137Z,98135.06
2023-04-21T09:25:55.340Z,98136.22
2023-04-21T09:28:57.977Z,98121.69
2023-04-21T09:32:02.736Z,98112.72
2023-04-21T09:35:06.402Z,98126.72
2023-04-21T09:38:11.935Z,98123.91
2023-04-21T09:41:18.066Z,98122.47
2023-04-21T09:44:21.572Z,98126.13
2023-04-21T09:47:28.308Z,98132.50
2023-04-21T09:53:40.572Z,98126.59
2023-04-21T09:56:44.486Z,98126.31
2023-04-21T09:59:47.809Z,98118.53
2023-04-21T10:02:52.503Z,98113.97
2023-04-21T10:05:55.210Z,98107.25
2023-04-21T10:08:58.791Z,98099.56
2023-04-21T10:12:02.710Z,98101.28
2023-04-21T10:15:06.409Z,98092.63
2023-04-21T10:18:15.374Z,98093.13
2023-04-21T10:21:21.810Z,98095.50
2023-04-21T10:24:24.455Z,98093.81
2023-04-21T10:27:34.443Z,98089.56
2023-04-21T10:30:37.370Z,98094.97
2023-04-21T10:33:42.041Z,98089.25
2023-04-21T10:36:50.507Z,98085.94
2023-04-21T10:39:54.608Z,98080.19
2023-04-21T10:42:57.287Z,98076.31
2023-04-21T10:45:59.851Z,98086.03
2023-04-21T10:49:11.580Z,98089.38
2023-04-21T10:52:16.395Z,98088.06
2023-04-21T10:55:19.298Z,98075.97
2023-04-21T10:58:24.300Z,98077.06
2023-04-21T11:01:26.891Z,98081.16
2023-04-21T11:04:32.047Z,98076.66
2023-04-21T11:07:34.874Z,98068.59
2023-04-21T11:10:53.068Z,98067.19
2023-04-21T11:13:55.577Z,98065.88
2023-04-21T11:16:58.230Z,98059.75
2023-04-21T11:20:04.044Z,98057.97
2023-04-21T11:23:06.599Z,98054.88
2023-04-21T11:26:09.221Z,98057.06
2023-04-21T11:29:12.763Z,98042.41
2023-04-21T11:32:16.225Z,98048.25
2023-04-21T11:35:20.189Z,98046.31
2023-04-21T11:38:23.266Z,98055.16
2023-04-21T11:41:26.488Z,98053.69
2023-04-21T11:44:33.924Z,98046.91
2023-04-21T11:47:37.689Z,98037.19
2023-04-21T11:50:41.610Z,98037.59
2023-04-21T11:53:44.212Z,98029.69
2023-04-21T11:56:48.565Z,98018.03
2023-04-21T11:59:51.480Z,98024.44
2023-04-21T12:02:58.597Z,98023.66
2023-04-21T12:06:02.768Z,98024.13
2023-04-21T12:09:05.315Z,98019.38
2023-04-21T12:12:08.313Z,98028.59
2023-04-21T12:15:12.739Z,98024.75
2023-04-21T12:18:15.900Z,98020.09
2023-04-21T12:21:19.788Z,98020.13
2023-04-21T12:24:22.351Z,98011.81
2023-04-21T12:27:25.022Z,98005.97
2023-04-21T12:30:27.680Z,98004.75
2023-04-21T12:33:30.426Z,98000.03
2023-04-21T12:36:36.409Z,98003.91
2023-04-21T12:39:39.189Z,97990.09
2023-04-21T12:42:42.035Z,97984.78
2023-04-21T12:45:44.689Z,97980.69
2023-04-21T12:48:48.739Z,97972.25
2023-04-21T12:51:52.598Z,97959.84
2023-04-21T12:54:55.951Z,97958.53
2023-04-21T12:57:58.875Z,97952.63
2023-04-21T13:01:01.817Z,97946.47
2023-04-21T13:04:04.980Z,97940.16
2023-04-21T13:07:09.006Z,97940.59
2023-04-21T13:10:12.176Z,97930.06
2023-04-21T13:13:14.808Z,97932.75
2023-04-21T13:16:17.683Z,97939.25
2023-04-21T13:19:20.146Z,97928.44
2023-04-21T13:22:24.097Z,97920.34
2023-04-21T13:25:26.932Z,97920.22
2023-04-21T13:28:29.920Z,97904.75
2023-04-21T13:31:32.752Z,97901.16
2023-04-21T13:34:35.732Z,97898.06
2023-04-21T13:37:40.243Z,97903.78
2023-04-21T13:40:42.838Z,97898.91
2023-04-21T13:43:45.488Z,97895.69
2023-04-21T13:46:48.141Z,97891.88
2023-04-21T13:49:51.502Z,97899.59
2023-04-21T13:52:55.365Z,97892.81
2023-04-21T13:55:59.336Z,97882.13
2023-04-21T13:59:01.924Z,97882.78
2023-04-21T14:02:04.809Z,97875.53
2023-04-21T14:05:07.973Z,97877.16
2023-04-21T14:08:12.076Z,97870.22
2023-04-21T14:11:14.682Z,97873.31
2023-04-21T14:14:27.690Z,97858.47
2023-04-21T14:17:39.782Z,97846.50
2023-04-21T14:20:42.460Z,97847.47
2023-04-21T14:23:46.596Z,97835.38
2023-04-21T14:26:49.230Z,97827.63
2023-04-21T14:29:51.712Z,97826.81
2023-04-21T14:32:54.157Z,97815.16
2023-04-21T14:35:57.072Z,97803.81
2023-04-21T14:39:01.026Z,97811.31
2023-04-21T14:42:03.702Z,97807.66
2023-04-21T14:45:07.263Z,97809.19
2023-04-21T14:48:11.764Z,97805.81
2023-04-21T14:51:14.355Z,97811.16
2023-04-21T14:54:18.296Z,97811.03
2023-04-21T14:57:22.087Z,97810.41
2023-04-21T15:00:25.800Z,97809.38
2023-04-21T15:03:28.641Z,97807.66
2023-04-21T15:06:31.687Z,97794.13
2023-04-21T15:09:37.377Z,97787.63
2023-04-21T15:12:41.886Z,97789.16
2023-04-21T15:15:44.874Z,97791.50
2023-04-21T15:18:47.668Z,97782.75
2023-04-21T15:21:50.239Z,97779.25
2023-04-21T15:24:54.787Z,97780.16
2023-04-21T15:27:57.552Z,97772.75
2023-04-21T15:31:00.227Z,97771.06
2023-04-21T15:34:03.112Z,97766.44
2023-04-21T15:37:05.679Z,97773.78
2023-04-21T15:40:10.828Z,97780.78
2023-04-21T15:43:13.497Z,97783.41
2023-04-21T15:46:16.273Z,97775.31
2023-04-21T15:49:18.996Z,97781.78
2023-04-21T15:52:21.623Z,97777.06
2023-04-21T15:55:27.969Z,97776.91
2023-04-21T15:58:30.567Z,97765.88
2023-04-21T16:01:33.269Z,97766.91
2023-04-21T16:04:36.515Z,97768.66
2023-04-21T16:07:39.850Z,97770.78
2023-04-21T16:10:43.769Z,97763.84
2023-04-21T16:13:46.551Z,97762.59
2023-04-21T16:16:49.127Z,97755.78
2023-04-21T16:19:51.592Z,97752.09
2023-04-21T16:22:54.324Z,97754.53
2023-04-21T16:25:58.171Z,97740.38
2023-04-21T16:29:00.705Z,97749.31
2023-04-21T16:32:03.345Z,97745.97
2023-04-21T16:35:08.295Z,97737.41
2023-04-21T16:38:11.178Z,97737.72
2023-04-21T16:41:17.181Z,97730.94
2023-04-21T16:44:20.731Z,97726.16
2023-04-21T16:47:23.430Z,97736.41
2023-04-21T16:50:26.213Z,97733.38
2023-04-21T16:53:28.900Z,97735.66
2023-04-21T16:56:33.354Z,97745.78
2023-04-21T16:59:36.101Z,97737.19
2023-04-21T17:02:38.828Z,97732.97
2023-04-21T17:05:41.655Z,97740.59
2023-04-21T17:08:44.372Z,97744.66
2023-04-21T17:11:48.506Z,97751.53
2023-04-21T17:14:51.205Z,97743.53
2023-04-21T17:17:54.087Z,97749.56
2023-04-21T17:20:56.734Z,97751.94
2023-04-21T17:23:59.520Z,97760.72
2023-04-21T17:27:03.650Z,97779.88
2023-04-21T17:30:07.770Z,97787.28
2023-04-21T17:36:17.810Z,97764.69
2023-04-21T17:39:20.478Z,97774.81
2023-04-21T17:42:24.503Z,97783.47
2023-04-21T17:45:27.147Z,97778.00
2023-04-21T17:48:29.887Z,97771.03
2023-04-21T17:51:32.625Z,97775.75
2023-04-21T17:54:36.237Z,97778.13
2023-04-21T17:57:40.561Z,97790.34
2023-04-21T18:00:43.347Z,97780.19
2023-04-21T18:03:46.876Z,97786.88
2023-04-21T18:06:51.105Z,97795.56
2023-04-21T18:09:53.705Z,97798.22
2023-04-21T18:12:57.636Z,97803.28
2023-04-21T18:16:00.646Z,97806.28
2023-04-21T18:19:03.302Z,97810.44
2023-04-21T18:22:06.033Z,97819.66
2023-04-21T18:25:09.443Z,97826.88
2023-04-21T18:28:14.238Z,97823.53
2023-04-21T18:31:16.945Z,97829.22
2023-04-21T18:34:19.682Z,97831.97
2023-04-21T18:37:22.336Z,97837.72
2023-04-21T18:40:25.079Z,97839.50
2023-04-21T18:43:29.185Z,97848.72
2023-04-21T18:46:31.753Z,97845.84
2023-04-21T18:49:34.522Z,97857.09
2023-04-21T18:52:37.120Z,97865.97
2023-04-21T18:55:40.432Z,97870.22
2023-04-21T18:58:44.661Z,97875.56
2023-04-21T19:01:47.623Z,97883.69
2023-04-21T19:04:50.339Z,97877.97
2023-04-21T19:07:53.088Z,97885.28
2023-04-21T19:10:56.091Z,97894.09
2023-04-21T19:14:00.145Z,97891.22
2023-04-21T19:17:02.999Z,97877.47
2023-04-21T19:20:06.806Z,97884.72
2023-04-21T19:23:09.623Z,97887.72
2023-04-21T19:26:13.308Z,97888.09
2023-04-21T19:29:17.824Z,97889.50
2023-04-21T19:32:20.840Z,97890.59
2023-04-21T19:35:23.744Z,97898.66
2023-04-21T19:38:26.924Z,97893.56
2023-04-21T19:41:29.799Z,97888.69
2023-04-21T19:44:33.881Z,97899.69
2023-04-21T19:47:36.700Z,97895.47
2023-04-21T19:50:39.596Z,97895.09
2023-04-21T19:53:42.592Z,97895.81
2023-04-21T19:56:45.514Z,97897.56
2023-04-21T19:59:51.795Z,97898.84
2023-04-21T20:02:54.742Z,97911.19
2023-04-21T20:05:57.575Z,97907.78
2023-04-21T20:09:00.181Z,97904.72
2023-04-21T20:12:02.901Z,97913.72
2023-04-21T20:15:08.416Z,97912.91
2023-04-21T20:18:11.547Z,97912.34
2023-04-21T20:21:14.212Z,97923.28
2023-04-21T20:24:17.264Z,97919.06
2023-04-21T20:27:19.926Z,97924.88
2023-04-21T20:30:24.371Z,97916.50
2023-04-21T20:33:28.075Z,97914.06
2023-04-21T20:36:30.692Z,97912.34
2023-04-21T20:39:33.671Z,97911.00
2023-04-21T20:42:36.562Z,97917.66
2023-04-21T20:45:41.293Z,97924.63
2023-04-21T20:48:43.992Z,97914.19
2023-04-21T20:51:46.676Z,97921.16
2023-04-21T20:54:49.204Z,97922.63
2023-04-21T20:57:51.785Z,97917.84
2023-04-21T21:00:56.277Z,97920.19
2023-04-21T21:04:01.003Z,97915.03
2023-04-21T21:07:04.120Z,97924.41
2023-04-21T21:10:08.106Z,97922.81
2023-04-21T21:13:11.008Z,97915.34
2023-04-21T21:16:14.996Z,97912.22
2023-04-21T21:19:17.614Z,97911.81
2023-04-21T21:22:20.181Z,97908.09
2023-04-21T21:25:22.909Z,97908.09
2023-04-21T21:28:26.224Z,97909.53
2023-04-21T21:31:30.680Z,97912.47
2023-04-21T21:34:33.272Z,97909.53
2023-04-21T21:37:35.902Z,97904.88
2023-04-21T21:40:38.559Z,97906.44
2023-04-21T21:43:41.184Z,97918.00
2023-04-21T21:46:45.531Z,97911.22
2023-04-21T21:49:48.066Z,97904.63
2023-04-21T21:52:50.785Z,97906.78
2023-04-21T21:55:53.406Z,97898.09
2023-04-21T21:58:55.976Z,97903.47
2023-04-21T22:01:59.844Z,97901.31
2023-04-21T22:05:04.440Z,97894.19
2023-04-21T22:08:07.259Z,97901.03
2023-04-21T22:11:09.862Z,97903.19
2023-04-21T22:14:22.697Z,97899.63
2023-04-21T22:17:27.711Z,97906.59
2023-04-21T22:20:30.205Z,97910.00
2023-04-21T22:23:33.124Z,97906.75
2023-04-21T22:26:36.245Z,97914.50
2023-04-21T22:29:39.042Z,97914.78
2023-04-21T22:32:43.258Z,97921.03
2023-04-21T22:35:45.944Z,97905.53
2023-04-21T22:38:48.929Z,97910.09
2023-04-21T22:41:53.140Z,97909.69
2023-04-21T22:44:55.821Z,97916.66
2023-04-21T22:47:59.819Z,97906.16
2023-04-21T22:51:02.429Z,97916.13
2023-04-21T22:54:05.134Z,97907.97
2023-04-21T22:57:07.923Z,97904.06
2023-04-21T23:00:11.805Z,97902.03
2023-04-21T23:03:16.033Z,97907.88
2023-04-21T23:06:18.860Z,97909.41
2023-04-21T23:09:21.386Z,97905.00
2023-04-21T23:12:24.019Z,97907.75
2023-04-21T23:15:26.848Z,97905.38
2023-04-21T23:18:30.875Z,97908.97
2023-04-21T23:21:33.520Z,97906.72
2023-04-21T23:24:36.028Z,97899.88
2023-04-21T23:27:39.721Z,97902.47
2023-04-21T23:30:42.266Z,97911.69
2023-04-21T23:33:46.169Z,97903.28
2023-04-21T23:36:48.735Z,97896.78
2023-04-21T23:39:51.433Z,97898.28
2023-04-21T23:42:53.998Z,97899.72
2023-04-21T23:45:56.619Z,97896.44
2023-04-21T23:49:00.576Z,97893.56
2023-04-21T23:52:03.196Z,97886.75
2023-04-21T23:55:08.192Z,97887.38
2023-04-21T23:58:10.764Z,97891.25
